Time;durP1;ratioP1;P1;durP2;ratioP2;P2;SDS_P1;SDS_P2;PMS_P1;PMS_P2;Temp;Humidity;BMP_temperature;BMP_pressure;BME280_temperature;BME280_humidity;BME280_pressure;Samples;Min_cycle;Max_cycle;Signal;HPM_P1;HPM_P2
2022/07/27 00:01:06;;;;;;;4.53;1.27;;;;;;;;;;5040945;28;20033;-77
2022/07/27 00:03:31;;;;;;;2.30;1.20;;;;;;;;;;5059303;28;20082;-78
2022/07/27 00:05:56;;;;;;;3.20;1.20;;;;;;;;;;5058921;28;20429;-78
2022/07/27 00:08:22;;;;;;;1.73;1.07;;;;;;;;;;5058745;28;20654;-78
2022/07/27 00:10:49;;;;;;;2.38;1.17;;;;;;;;;;5059367;28;20257;-78
2022/07/27 00:13:14;;;;;;;1.70;1.02;;;;;;;;;;5058920;28;20033;-77
2022/07/27 00:15:40;;;;;;;3.10;1.10;;;;;;;;;;5059329;28;20110;-77
2022/07/27 00:18:05;;;;;;;2.33;0.90;;;;;;;;;;5057973;28;20056;-78
2022/07/27 00:20:31;;;;;;;1.60;1.00;;;;;;;;;;5059389;28;20501;-78
2022/07/27 00:22:57;;;;;;;2.97;1.10;;;;;;;;;;5058865;28;20051;-78
2022/07/27 00:25:25;;;;;;;3.33;1.00;;;;;;;;;;5056827;28;20096;-77
2022/07/27 00:27:51;;;;;;;3.35;1.00;;;;;;;;;;5056570;28;20016;-77
2022/07/27 00:30:16;;;;;;;3.13;1.00;;;;;;;;;;5058716;28;20094;-77
2022/07/27 00:32:41;;;;;;;10.27;1.77;;;;;;;;;;5056987;28;20025;-78
2022/07/27 00:35:07;;;;;;;4.85;1.20;;;;;;;;;;5057319;28;20049;-77
2022/07/27 00:37:32;;;;;;;4.50;1.98;;;;;;;;;;5058066;28;20025;-77
2022/07/27 00:39:58;;;;;;;8.07;1.30;;;;;;;;;;5038921;28;20021;-78
2022/07/27 00:42:27;;;;;;;2.67;1.17;;;;;;;;;;5039239;28;20326;-77
2022/07/27 00:44:53;;;;;;;7.20;1.50;;;;;;;;;;5061019;28;20029;-77
2022/07/27 00:47:19;;;;;;;2.22;1.10;;;;;;;;;;5057268;28;20107;-77
2022/07/27 00:49:44;;;;;;;3.42;1.23;;;;;;;;;;5055026;28;20079;-77
2022/07/27 00:52:10;;;;;;;4.97;1.67;;;;;;;;;;5055402;28;20107;-78
2022/07/27 00:54:36;;;;;;;2.33;1.30;;;;;;;;;;5037809;28;20697;-78
2022/07/27 00:57:01;;;;;;;1.13;0.93;;;;;;;;;;5056190;28;20025;-77
2022/07/27 00:59:26;;;;;;;5.65;1.38;;;;;;;;;;5056297;28;20100;-77
2022/07/27 01:01:52;;;;;;;3.97;1.27;;;;;;;;;;5055626;28;20020;-77
2022/07/27 01:04:17;;;;;;;4.15;1.35;;;;;;;;;;5055337;28;20033;-78
2022/07/27 01:06:42;;;;;;;2.50;1.40;;;;;;;;;;5055992;28;20042;-78
2022/07/27 01:11:52;;;;;;;2.00;1.10;;;;;;;;;;5055520;28;20417;-77
2022/07/27 01:14:17;;;;;;;5.87;1.57;;;;;;;;;;5055346;28;20021;-78
2022/07/27 01:16:43;;;;;;;2.53;1.40;;;;;;;;;;5056557;28;20743;-78
2022/07/27 01:19:10;;;;;;;2.65;1.20;;;;;;;;;;5057607;28;20049;-77
2022/07/27 01:21:35;;;;;;;5.13;1.13;;;;;;;;;;5056112;28;20033;-78
2022/07/27 01:24:01;;;;;;;1.98;1.10;;;;;;;;;;5057333;28;20508;-77
2022/07/27 01:26:27;;;;;;;1.77;1.10;;;;;;;;;;5057385;28;20104;-79
2022/07/27 01:28:57;;;;;;;2.70;1.10;;;;;;;;;;5057802;28;20032;-78
2022/07/27 01:31:22;;;;;;;2.28;1.00;;;;;;;;;;5058420;28;20025;-77
2022/07/27 01:33:48;;;;;;;4.13;1.10;;;;;;;;;;5056959;28;20024;-78
2022/07/27 01:36:13;;;;;;;6.13;1.10;;;;;;;;;;5039964;28;20134;-78
2022/07/27 01:38:38;;;;;;;5.88;1.48;;;;;;;;;;5058915;28;20036;-79
2022/07/27 01:41:04;;;;;;;2.33;1.10;;;;;;;;;;5056840;28;20058;-78
2022/07/27 01:43:29;;;;;;;3.83;1.40;;;;;;;;;;5056945;28;20048;-77
2022/07/27 01:45:54;;;;;;;3.33;1.30;;;;;;;;;;5056385;28;20266;-76
2022/07/27 01:48:20;;;;;;;5.05;1.15;;;;;;;;;;5056319;28;20258;-78
2022/07/27 01:50:46;;;;;;;3.80;1.30;;;;;;;;;;5039994;28;20029;-78
2022/07/27 01:53:11;;;;;;;3.95;1.30;;;;;;;;;;5059229;28;20029;-78
2022/07/27 01:55:37;;;;;;;3.03;1.10;;;;;;;;;;5059324;28;20531;-77
2022/07/27 01:58:05;;;;;;;1.88;1.05;;;;;;;;;;5059025;28;20044;-78
2022/07/27 02:00:31;;;;;;;1.98;1.20;;;;;;;;;;5059885;28;20040;-78
2022/07/27 02:02:56;;;;;;;1.58;1.05;;;;;;;;;;5058361;28;20025;-77
2022/07/27 02:05:22;;;;;;;3.63;1.30;;;;;;;;;;5058385;28;20104;-78
2022/07/27 02:07:47;;;;;;;3.72;1.20;;;;;;;;;;5055825;28;20029;-77
2022/07/27 02:10:13;;;;;;;3.42;1.42;;;;;;;;;;5056223;28;20021;-77
2022/07/27 02:12:38;;;;;;;3.72;1.27;;;;;;;;;;5056520;28;20032;-77
2022/07/27 02:15:16;;;;;;;2.08;1.15;;;;;;;;;;5058092;28;20486;-78
2022/07/27 02:17:45;;;;;;;4.22;1.20;;;;;;;;;;5059036;28;20025;-78
2022/07/27 02:20:11;;;;;;;6.03;1.40;;;;;;;;;;5056135;28;20040;-78
2022/07/27 02:22:37;;;;;;;2.03;1.23;;;;;;;;;;5058091;28;20382;-79
2022/07/27 02:25:03;;;;;;;3.70;1.45;;;;;;;;;;5060249;28;20023;-78
2022/07/27 02:27:29;;;;;;;5.38;1.52;;;;;;;;;;5041716;28;20044;-79
2022/07/27 02:29:54;;;;;;;9.75;1.67;;;;;;;;;;5059876;28;20020;-76
2022/07/27 02:32:20;;;;;;;2.53;1.53;;;;;;;;;;5058186;28;20458;-77
2022/07/27 02:34:45;;;;;;;5.00;1.40;;;;;;;;;;5057408;28;20278;-78
2022/07/27 02:37:11;;;;;;;2.10;1.40;;;;;;;;;;5057498;28;20119;-77
2022/07/27 02:39:36;;;;;;;2.08;1.42;;;;;;;;;;5058178;28;20017;-77
2022/07/27 02:42:02;;;;;;;6.03;1.80;;;;;;;;;;5058591;28;20020;-78
2022/07/27 02:44:28;;;;;;;5.45;1.40;;;;;;;;;;5058418;28;20017;-78
2022/07/27 02:46:53;;;;;;;3.10;1.60;;;;;;;;;;5058690;28;20044;-77
2022/07/27 02:49:19;;;;;;;3.55;1.45;;;;;;;;;;5058013;28;20375;-77
2022/07/27 02:51:44;;;;;;;2.50;1.40;;;;;;;;;;5057734;28;20036;-77
2022/07/27 02:54:09;;;;;;;4.25;1.45;;;;;;;;;;5058504;28;20284;-78
2022/07/27 02:56:34;;;;;;;2.73;1.30;;;;;;;;;;5041780;28;20032;-78
2022/07/27 02:58:59;;;;;;;2.67;1.30;;;;;;;;;;5059144;28;20316;-77
2022/07/27 03:01:25;;;;;;;8.70;1.50;;;;;;;;;;5058012;28;20262;-77
2022/07/27 03:03:50;;;;;;;5.93;1.48;;;;;;;;;;5057555;28;20039;-78
2022/07/27 03:06:16;;;;;;;3.60;1.67;;;;;;;;;;5057797;28;20042;-78
2022/07/27 03:08:41;;;;;;;4.63;1.50;;;;;;;;;;5039504;28;20089;-78
2022/07/27 03:11:07;;;;;;;7.37;1.80;;;;;;;;;;5057055;28;20021;-77
2022/07/27 03:13:32;;;;;;;3.38;1.40;;;;;;;;;;5057312;28;20763;-77
2022/07/27 03:15:58;;;;;;;2.78;1.23;;;;;;;;;;5057788;28;20033;-78
2022/07/27 03:18:23;;;;;;;4.00;1.60;;;;;;;;;;5056677;28;20064;-77
2022/07/27 03:20:49;;;;;;;3.63;1.23;;;;;;;;;;5056921;28;20261;-78
2022/07/27 03:23:16;;;;;;;2.45;1.25;;;;;;;;;;5057451;28;20501;-78
2022/07/27 03:25:42;;;;;;;2.92;1.17;;;;;;;;;;5038651;28;20585;-78
2022/07/27 03:28:07;;;;;;;2.72;1.30;;;;;;;;;;5056584;28;20064;-78
2022/07/27 03:30:32;;;;;;;8.23;1.33;;;;;;;;;;5056554;28;20025;-78
2022/07/27 03:32:57;;;;;;;3.33;1.10;;;;;;;;;;5038804;28;20314;-78
2022/07/27 03:35:22;;;;;;;2.87;1.40;;;;;;;;;;5056669;28;20261;-79
2022/07/27 03:37:48;;;;;;;5.07;1.73;;;;;;;;;;5057122;28;20246;-77
2022/07/27 03:40:13;;;;;;;2.90;1.17;;;;;;;;;;5056741;28;20081;-77
2022/07/27 03:42:38;;;;;;;3.67;1.30;;;;;;;;;;5056384;28;20257;-78
2022/07/27 03:45:04;;;;;;;3.03;1.27;;;;;;;;;;5056160;28;20547;-78
2022/07/27 03:47:30;;;;;;;7.03;1.50;;;;;;;;;;5058103;28;20033;-77
2022/07/27 03:49:55;;;;;;;4.72;1.40;;;;;;;;;;5039068;28;20029;-76
2022/07/27 03:52:20;;;;;;;2.85;1.08;;;;;;;;;;5057071;28;20083;-77
2022/07/27 03:54:46;;;;;;;3.50;1.47;;;;;;;;;;5057589;28;20052;-78
2022/07/27 03:57:13;;;;;;;4.47;1.70;;;;;;;;;;5039805;28;20269;-77
2022/07/27 03:59:38;;;;;;;1.95;1.00;;;;;;;;;;5057862;28;20068;-78
2022/07/27 04:02:04;;;;;;;4.30;1.27;;;;;;;;;;5039562;28;20033;-78
2022/07/27 04:04:29;;;;;;;4.60;1.17;;;;;;;;;;5058604;28;20250;-78
2022/07/27 04:06:54;;;;;;;3.58;1.00;;;;;;;;;;5055877;28;20025;-78
2022/07/27 04:09:19;;;;;;;2.10;1.00;;;;;;;;;;5040617;28;20021;-78
2022/07/27 04:11:45;;;;;;;4.93;1.10;;;;;;;;;;5040890;28;20495;-78
2022/07/27 04:14:11;;;;;;;4.25;1.08;;;;;;;;;;5057587;28;20143;-79
2022/07/27 04:16:36;;;;;;;5.18;1.20;;;;;;;;;;5039289;28;20045;-79
2022/07/27 04:19:02;;;;;;;5.10;1.00;;;;;;;;;;5058049;28;20037;-79
2022/07/27 04:21:27;;;;;;;5.63;1.27;;;;;;;;;;5058598;28;20268;-78
2022/07/27 04:23:52;;;;;;;5.07;1.40;;;;;;;;;;5058072;28;20497;-78
2022/07/27 04:26:18;;;;;;;4.13;1.03;;;;;;;;;;5057591;28;20258;-79
2022/07/27 04:28:43;;;;;;;3.60;1.30;;;;;;;;;;5057654;28;20638;-79
2022/07/27 04:31:09;;;;;;;7.82;1.30;;;;;;;;;;5057000;28;20036;-77
2022/07/27 04:33:34;;;;;;;4.63;1.27;;;;;;;;;;5057062;28;20429;-77
2022/07/27 04:35:59;;;;;;;7.97;1.20;;;;;;;;;;5056502;28;20505;-78
2022/07/27 04:38:25;;;;;;;6.35;1.10;;;;;;;;;;5055680;28;20074;-77
2022/07/27 04:40:50;;;;;;;3.63;1.03;;;;;;;;;;5037890;28;20017;-78
2022/07/27 04:43:15;;;;;;;3.03;1.00;;;;;;;;;;5055885;28;20353;-78
2022/07/27 04:45:40;;;;;;;1.73;1.08;;;;;;;;;;5055905;28;20261;-78
2022/07/27 04:48:07;;;;;;;4.65;0.93;;;;;;;;;;5055983;28;20021;-78
2022/07/27 04:50:38;;;;;;;8.27;0.90;;;;;;;;;;5054963;28;20086;-79
2022/07/27 04:53:03;;;;;;;3.15;1.00;;;;;;;;;;5056201;28;20078;-79
2022/07/27 04:55:29;;;;;;;5.07;1.13;;;;;;;;;;5055644;28;20028;-78
2022/07/27 04:57:54;;;;;;;5.32;1.00;;;;;;;;;;5055531;28;20309;-78
2022/07/27 05:00:19;;;;;;;7.33;1.50;;;;;;;;;;5055353;28;20029;-78
2022/07/27 05:02:44;;;;;;;3.72;1.13;;;;;;;;;;5055345;28;20734;-79
2022/07/27 05:05:11;;;;;;;7.47;1.30;;;;;;;;;;5056591;28;20056;-77
2022/07/27 05:07:36;;;;;;;4.40;1.13;;;;;;;;;;5057039;28;20421;-78
2022/07/27 05:10:01;;;;;;;6.70;1.30;;;;;;;;;;5055742;28;20021;-77
2022/07/27 05:12:27;;;;;;;4.55;1.05;;;;;;;;;;5055803;28;20261;-78
2022/07/27 05:14:52;;;;;;;2.63;1.00;;;;;;;;;;5056114;28;20403;-79
2022/07/27 05:17:17;;;;;;;3.07;1.00;;;;;;;;;;5039088;28;20646;-78
2022/07/27 05:19:42;;;;;;;7.97;1.10;;;;;;;;;;5057397;28;20264;-78
2022/07/27 05:22:08;;;;;;;4.00;1.00;;;;;;;;;;5038690;28;20266;-78
2022/07/27 05:24:33;;;;;;;3.58;1.00;;;;;;;;;;5056742;28;20024;-78
2022/07/27 05:26:59;;;;;;;2.28;1.00;;;;;;;;;;5056758;28;20037;-78
2022/07/27 05:29:24;;;;;;;4.87;1.00;;;;;;;;;;5056810;28;20402;-78
2022/07/27 05:31:49;;;;;;;6.32;1.33;;;;;;;;;;5054832;28;20743;-77
2022/07/27 05:34:15;;;;;;;5.15;1.10;;;;;;;;;;5055872;28;20406;-78
2022/07/27 05:36:40;;;;;;;8.47;1.10;;;;;;;;;;5057560;28;20035;-78
2022/07/27 05:39:05;;;;;;;3.93;1.10;;;;;;;;;;5056734;28;20261;-78
2022/07/27 05:41:30;;;;;;;5.17;1.10;;;;;;;;;;5056896;28;20261;-78
2022/07/27 05:43:56;;;;;;;9.50;1.25;;;;;;;;;;5056476;28;20254;-79
2022/07/27 05:46:22;;;;;;;4.20;0.90;;;;;;;;;;5055671;28;20040;-77
2022/07/27 05:48:47;;;;;;;4.68;1.05;;;;;;;;;;5055202;28;20053;-77
2022/07/27 05:51:13;;;;;;;3.80;0.90;;;;;;;;;;5040966;28;20029;-84
2022/07/27 05:53:38;;;;;;;4.03;1.20;;;;;;;;;;5058688;28;20155;-84
2022/07/27 05:56:04;;;;;;;3.67;1.00;;;;;;;;;;5040732;28;20071;-84
2022/07/27 05:58:29;;;;;;;5.75;1.10;;;;;;;;;;5061744;28;20394;-80
2022/07/27 06:00:55;;;;;;;10.57;1.10;;;;;;;;;;5062679;28;20033;-80
2022/07/27 06:03:21;;;;;;;5.93;1.23;;;;;;;;;;5045327;28;20017;-78
2022/07/27 06:05:46;;;;;;;5.90;1.25;;;;;;;;;;5063149;28;20028;-80
2022/07/27 06:08:14;;;;;;;4.38;1.10;;;;;;;;;;5062754;28;20029;-79
2022/07/27 06:10:40;;;;;;;5.38;1.10;;;;;;;;;;5062975;28;20538;-78
2022/07/27 06:13:07;;;;;;;5.70;1.05;;;;;;;;;;5063450;28;20056;-79
2022/07/27 06:15:32;;;;;;;8.48;1.30;;;;;;;;;;5066276;28;20528;-78
2022/07/27 06:17:57;;;;;;;6.78;1.52;;;;;;;;;;5064392;28;20112;-78
2022/07/27 06:20:23;;;;;;;4.55;1.10;;;;;;;;;;5047526;28;20056;-80
2022/07/27 06:22:51;;;;;;;4.07;1.20;;;;;;;;;;5064164;28;20032;-80
2022/07/27 06:25:18;;;;;;;3.65;0.95;;;;;;;;;;5063809;28;20155;-78
2022/07/27 06:27:43;;;;;;;5.53;1.08;;;;;;;;;;5064084;28;20029;-80
2022/07/27 06:30:10;;;;;;;3.75;1.23;;;;;;;;;;5063921;28;20040;-80
2022/07/27 06:32:35;;;;;;;5.13;1.10;;;;;;;;;;5062108;28;20056;-79
2022/07/27 06:35:01;;;;;;;5.50;1.60;;;;;;;;;;5063040;28;20044;-79
2022/07/27 06:37:28;;;;;;;5.72;1.30;;;;;;;;;;5064909;28;20108;-81
2022/07/27 06:39:53;;;;;;;4.53;1.25;;;;;;;;;;5065734;28;20020;-81
2022/07/27 06:42:19;;;;;;;6.70;1.50;;;;;;;;;;5046834;28;20547;-79
2022/07/27 06:44:44;;;;;;;5.30;1.30;;;;;;;;;;5046849;28;20487;-82
2022/07/27 06:47:09;;;;;;;5.63;1.10;;;;;;;;;;5046727;28;20786;-82
2022/07/27 06:49:34;;;;;;;3.75;1.15;;;;;;;;;;5065548;28;20765;-80
2022/07/27 06:52:00;;;;;;;5.77;1.17;;;;;;;;;;5066913;28;20029;-79
2022/07/27 06:54:25;;;;;;;7.45;1.30;;;;;;;;;;5049673;28;20277;-80
2022/07/27 06:56:50;;;;;;;3.60;0.90;;;;;;;;;;5065967;28;20024;-81
2022/07/27 06:59:15;;;;;;;6.40;1.30;;;;;;;;;;5067357;28;20304;-79
2022/07/27 07:01:40;;;;;;;3.00;1.10;;;;;;;;;;5049260;28;20262;-84
2022/07/27 07:04:06;;;;;;;4.43;1.10;;;;;;;;;;5067878;28;20028;-80
2022/07/27 07:06:31;;;;;;;10.38;1.23;;;;;;;;;;5067638;28;20250;-79
2022/07/27 07:08:57;;;;;;;7.10;1.25;;;;;;;;;;5067236;28;20123;-80
2022/07/27 07:11:22;;;;;;;6.43;1.15;;;;;;;;;;5065873;28;20017;-78
2022/07/27 07:13:47;;;;;;;7.00;1.40;;;;;;;;;;5067893;28;20052;-79
2022/07/27 07:16:13;;;;;;;2.95;0.90;;;;;;;;;;5067525;28;20059;-80
2022/07/27 07:18:38;;;;;;;4.22;1.10;;;;;;;;;;5062346;28;20032;-79
2022/07/27 07:21:04;;;;;;;4.40;1.23;;;;;;;;;;5061140;28;20025;-80
2022/07/27 07:23:29;;;;;;;6.68;1.10;;;;;;;;;;5048529;28;20253;-80
2022/07/27 07:25:54;;;;;;;6.15;1.02;;;;;;;;;;5066813;28;20028;-80
2022/07/27 07:28:21;;;;;;;3.58;1.25;;;;;;;;;;5066618;28;20028;-79
2022/07/27 07:30:47;;;;;;;8.07;1.05;;;;;;;;;;5064417;28;20024;-79
2022/07/27 07:33:12;;;;;;;3.97;1.20;;;;;;;;;;5064230;28;20067;-79
2022/07/27 07:35:37;;;;;;;5.10;1.10;;;;;;;;;;5063582;28;20020;-79
2022/07/27 07:38:03;;;;;;;6.82;1.20;;;;;;;;;;5062124;28;20269;-80
2022/07/27 07:40:28;;;;;;;5.55;1.02;;;;;;;;;;5045965;28;20152;-78
2022/07/27 07:42:56;;;;;;;5.13;1.30;;;;;;;;;;5065857;28;20021;-78
2022/07/27 07:45:23;;;;;;;3.63;0.95;;;;;;;;;;5048038;28;20021;-80
2022/07/27 07:47:49;;;;;;;3.40;0.95;;;;;;;;;;5064446;28;20028;-80
2022/07/27 07:50:15;;;;;;;3.33;1.00;;;;;;;;;;5068801;22;20015;-80
2022/07/27 07:52:41;;;;;;;3.88;1.00;;;;;;;;;;5043765;28;20070;-79
2022/07/27 07:55:07;;;;;;;4.75;1.10;;;;;;;;;;5025872;28;20039;-80
2022/07/27 07:57:32;;;;;;;5.60;1.00;;;;;;;;;;5043701;28;20030;-77
2022/07/27 07:59:57;;;;;;;4.80;1.20;;;;;;;;;;5044056;28;20025;-78
2022/07/27 08:02:22;;;;;;;8.43;1.00;;;;;;;;;;5026760;28;20266;-81
2022/07/27 08:04:47;;;;;;;4.07;1.10;;;;;;;;;;5028292;28;20018;-79
2022/07/27 08:07:13;;;;;;;7.80;1.13;;;;;;;;;;5027264;28;20250;-79
2022/07/27 08:09:38;;;;;;;4.75;1.08;;;;;;;;;;5028104;28;20262;-79
2022/07/27 08:12:05;;;;;;;5.10;0.95;;;;;;;;;;5044810;28;20034;-81
2022/07/27 08:14:30;;;;;;;5.28;1.35;;;;;;;;;;5044317;28;20418;-79
2022/07/27 08:16:58;;;;;;;3.45;1.02;;;;;;;;;;5044579;28;20037;-79
2022/07/27 08:19:24;;;;;;;3.58;1.00;;;;;;;;;;5042330;28;20037;-79
2022/07/27 08:21:49;;;;;;;5.38;1.23;;;;;;;;;;5042161;28;20029;-79
2022/07/27 08:24:14;;;;;;;3.40;1.20;;;;;;;;;;5041585;28;20024;-78
2022/07/27 08:26:40;;;;;;;4.55;1.00;;;;;;;;;;5026403;28;20025;-81
2022/07/27 08:29:05;;;;;;;4.18;0.98;;;;;;;;;;5041953;28;20048;-79
2022/07/27 08:31:30;;;;;;;4.35;0.90;;;;;;;;;;5023157;28;20136;-77
2022/07/27 08:33:55;;;;;;;7.10;0.90;;;;;;;;;;5041796;28;20040;-79
2022/07/27 08:36:21;;;;;;;3.93;1.10;;;;;;;;;;5044328;28;20266;-79
2022/07/27 08:38:46;;;;;;;3.45;0.80;;;;;;;;;;5043451;28;20294;-79
2022/07/27 08:41:12;;;;;;;2.93;0.90;;;;;;;;;;5025175;28;20032;-80
2022/07/27 08:43:41;;;;;;;5.15;1.00;;;;;;;;;;5045727;28;20273;-79
2022/07/27 08:46:09;;;;;;;1.60;0.77;;;;;;;;;;5045090;28;20088;-80
2022/07/27 08:48:37;;;;;;;5.25;1.10;;;;;;;;;;5027331;28;20048;-80
2022/07/27 08:51:03;;;;;;;4.28;0.82;;;;;;;;;;5047220;28;20028;-79
2022/07/27 08:53:32;;;;;;;3.95;0.70;;;;;;;;;;5045360;28;20029;-80
2022/07/27 08:55:58;;;;;;;1.88;0.70;;;;;;;;;;5044726;28;20033;-79
2022/07/27 08:58:23;;;;;;;3.65;1.05;;;;;;;;;;5048072;28;20029;-80
2022/07/27 09:00:48;;;;;;;3.23;0.90;;;;;;;;;;5047054;28;20033;-80
2022/07/27 09:03:15;;;;;;;5.95;1.00;;;;;;;;;;5048728;28;20261;-80
2022/07/27 09:05:42;;;;;;;3.75;1.00;;;;;;;;;;5047522;28;20025;-79
2022/07/27 09:08:16;;;;;;;2.28;0.85;;;;;;;;;;5051901;28;20031;-80
2022/07/27 09:10:42;;;;;;;4.80;0.85;;;;;;;;;;5049973;28;20383;-79
2022/07/27 09:13:25;;;;;;;9.07;1.05;;;;;;;;;;5050263;28;20032;-79
2022/07/27 09:15:54;;;;;;;7.05;0.80;;;;;;;;;;5051218;28;20029;-80
2022/07/27 09:18:22;;;;;;;2.83;0.80;;;;;;;;;;5049502;28;20029;-80
2022/07/27 09:21:10;;;;;;;4.13;0.70;;;;;;;;;;5049479;28;20030;-77
2022/07/27 09:23:41;;;;;;;5.32;0.88;;;;;;;;;;5049854;28;20030;-79
2022/07/27 09:26:19;;;;;;;2.03;0.77;;;;;;;;;;5049763;28;20104;-78
2022/07/27 09:28:45;;;;;;;2.28;0.77;;;;;;;;;;5050416;28;20021;-79
2022/07/27 09:31:12;;;;;;;3.05;0.80;;;;;;;;;;5051112;28;20024;-80
2022/07/27 09:33:46;;;;;;;6.72;0.75;;;;;;;;;;5056356;28;20470;-79
2022/07/27 09:36:12;;;;;;;3.13;0.95;;;;;;;;;;5055773;28;20064;-80
2022/07/27 09:39:01;;;;;;;6.57;0.90;;;;;;;;;;5056924;28;20048;-79
2022/07/27 09:41:44;;;;;;;5.35;0.90;;;;;;;;;;5038626;28;20026;-78
2022/07/27 09:44:10;;;;;;;4.57;0.90;;;;;;;;;;5039489;28;20026;-80
2022/07/27 09:46:39;;;;;;;3.35;0.85;;;;;;;;;;5036876;28;20036;-77
2022/07/27 09:49:05;;;;;;;2.80;0.90;;;;;;;;;;5047773;28;20048;-78
2022/07/27 09:51:31;;;;;;;5.50;0.90;;;;;;;;;;5044365;28;20030;-79
2022/07/27 09:54:04;;;;;;;3.45;0.80;;;;;;;;;;5025269;28;20082;-79
2022/07/27 09:56:31;;;;;;;3.85;0.88;;;;;;;;;;5044612;28;20030;-79
2022/07/27 09:58:58;;;;;;;2.80;0.73;;;;;;;;;;5025728;28;20029;-78
2022/07/27 10:01:33;;;;;;;3.78;0.98;;;;;;;;;;5043029;28;20021;-76
2022/07/27 10:04:01;;;;;;;7.10;0.90;;;;;;;;;;5043219;28;20098;-78
2022/07/27 10:06:28;;;;;;;6.05;1.10;;;;;;;;;;5043315;28;20029;-78
2022/07/27 10:08:54;;;;;;;4.68;0.85;;;;;;;;;;5024698;28;20026;-77
2022/07/27 10:11:21;;;;;;;2.83;0.70;;;;;;;;;;5043389;28;20036;-78
2022/07/27 10:13:48;;;;;;;2.88;0.77;;;;;;;;;;5043266;28;20029;-78
2022/07/27 10:16:19;;;;;;;9.25;1.05;;;;;;;;;;5042567;28;20033;-78
2022/07/27 10:18:58;;;;;;;1.55;0.70;;;;;;;;;;5043059;28;20029;-78
2022/07/27 10:21:24;;;;;;;4.53;1.10;;;;;;;;;;5042677;28;20033;-79
2022/07/27 10:23:58;;;;;;;1.63;0.70;;;;;;;;;;5042981;28;20064;-77
2022/07/27 10:26:23;;;;;;;;;;;;;;;;;;5043578;28;20030;-80
2022/07/27 10:28:51;;;;;;;6.23;1.00;;;;;;;;;;5024453;28;19915;-80
2022/07/27 10:31:22;;;;;;;6.63;0.80;;;;;;;;;;5042318;28;20318;-77
2022/07/27 10:33:53;;;;;;;1.10;0.70;;;;;;;;;;5042781;28;20478;-79
2022/07/27 10:36:21;;;;;;;3.67;0.80;;;;;;;;;;5025296;28;20566;-79
2022/07/27 10:38:49;;;;;;;3.65;0.85;;;;;;;;;;5042881;28;20026;-78
2022/07/27 10:41:23;;;;;;;4.05;1.35;;;;;;;;;;5025148;28;20383;-78
2022/07/27 10:43:50;;;;;;;3.45;0.95;;;;;;;;;;5042274;28;20021;-79
2022/07/27 10:46:19;;;;;;;5.68;0.90;;;;;;;;;;5042275;28;20065;-79
2022/07/27 10:48:46;;;;;;;5.60;0.80;;;;;;;;;;5043602;28;20029;-79
2022/07/27 10:51:12;;;;;;;2.60;0.80;;;;;;;;;;5042139;28;20029;-78
2022/07/27 10:53:40;;;;;;;3.05;0.88;;;;;;;;;;5041540;28;20076;-79
2022/07/27 10:56:08;;;;;;;2.97;1.00;;;;;;;;;;5041840;28;20025;-77
2022/07/27 10:58:33;;;;;;;2.05;0.73;;;;;;;;;;5022913;28;20026;-78
2022/07/27 11:01:05;;;;;;;4.70;0.77;;;;;;;;;;5041483;28;20033;-79
2022/07/27 11:03:33;;;;;;;3.15;0.93;;;;;;;;;;5042660;28;20431;-79
2022/07/27 11:06:06;;;;;;;6.03;0.95;;;;;;;;;;5041604;28;20025;-80
2022/07/27 11:08:37;;;;;;;2.40;0.90;;;;;;;;;;5023586;28;20108;-79
2022/07/27 11:11:04;;;;;;;4.22;0.93;;;;;;;;;;5042109;28;20037;-79
2022/07/27 11:13:30;;;;;;;4.95;0.98;;;;;;;;;;5041341;28;20101;-79
2022/07/27 11:16:01;;;;;;;6.72;1.20;;;;;;;;;;5041681;28;20029;-80
2022/07/27 11:18:28;;;;;;;6.10;1.15;;;;;;;;;;5041091;28;20450;-77
2022/07/27 11:21:22;;;;;;;6.28;1.02;;;;;;;;;;5040551;28;20029;-78
2022/07/27 11:23:51;;;;;;;4.85;1.00;;;;;;;;;;5040772;28;20025;-79
2022/07/27 11:26:16;;;;;;;5.22;1.30;;;;;;;;;;5021354;28;20025;-79
2022/07/27 11:28:42;;;;;;;3.05;0.98;;;;;;;;;;5038828;28;20101;-78
2022/07/27 11:31:10;;;;;;;3.00;0.93;;;;;;;;;;5021769;28;20495;-80
2022/07/27 11:33:36;;;;;;;5.20;1.30;;;;;;;;;;5038837;28;20013;-78
2022/07/27 11:36:04;;;;;;;4.63;1.48;;;;;;;;;;5039741;28;20402;-79
2022/07/27 11:38:47;;;;;;;3.78;1.35;;;;;;;;;;5040524;28;20030;-78
2022/07/27 11:41:24;;;;;;;6.78;1.20;;;;;;;;;;5040090;28;20025;-78
2022/07/27 11:43:49;;;;;;;8.55;1.35;;;;;;;;;;5021561;28;20025;-78
2022/07/27 11:46:24;;;;;;;3.70;1.05;;;;;;;;;;5040032;28;20025;-80
2022/07/27 11:49:02;;;;;;;1.60;0.88;;;;;;;;;;5039586;28;20028;-80
2022/07/27 11:51:27;;;;;;;3.22;0.93;;;;;;;;;;5039421;28;20096;-79
2022/07/27 11:53:57;;;;;;;7.05;1.90;;;;;;;;;;5040106;28;20517;-79
2022/07/27 11:56:24;;;;;;;2.33;1.25;;;;;;;;;;5023013;28;20022;-79
2022/07/27 11:59:06;;;;;;;3.25;0.80;;;;;;;;;;5039217;28;20025;-79
2022/07/27 12:01:49;;;;;;;1.52;0.90;;;;;;;;;;5040550;28;20390;-79
2022/07/27 12:04:20;;;;;;;7.28;1.10;;;;;;;;;;5040612;28;20148;-81
2022/07/27 12:06:58;;;;;;;1.88;0.70;;;;;;;;;;5021661;28;20118;-79
2022/07/27 12:09:23;;;;;;;4.70;1.05;;;;;;;;;;5022219;28;20025;-77
2022/07/27 12:11:53;;;;;;;1.70;0.88;;;;;;;;;;5039741;28;20021;-77
2022/07/27 12:14:42;;;;;;;3.20;0.90;;;;;;;;;;5040037;28;20028;-79
2022/07/27 12:17:31;;;;;;;3.80;0.90;;;;;;;;;;5027811;28;20041;-78
2022/07/27 12:20:01;;;;;;;3.38;0.98;;;;;;;;;;5021439;28;20395;-78
2022/07/27 12:22:36;;;;;;;3.00;0.73;;;;;;;;;;5021915;28;20033;-78
2022/07/27 12:25:08;;;;;;;6.03;0.98;;;;;;;;;;5038789;28;20025;-78
2022/07/27 12:27:34;;;;;;;3.03;0.98;;;;;;;;;;5023177;28;20021;-76
2022/07/27 12:30:08;;;;;;;4.72;0.98;;;;;;;;;;5022288;28;20029;-78
2022/07/27 12:32:36;;;;;;;1.38;0.80;;;;;;;;;;5039606;28;20101;-78
2022/07/27 12:35:22;;;;;;;3.28;0.82;;;;;;;;;;5021410;28;20022;-78
2022/07/27 12:37:54;;;;;;;4.60;0.80;;;;;;;;;;5041231;28;20033;-78
2022/07/27 12:40:20;;;;;;;1.55;0.63;;;;;;;;;;5041002;28;20025;-78
2022/07/27 12:42:54;;;;;;;3.67;0.80;;;;;;;;;;5040878;28;20029;-78
2022/07/27 12:45:20;;;;;;;2.08;0.88;;;;;;;;;;5039902;28;20085;-76
2022/07/27 12:47:46;;;;;;;3.03;0.80;;;;;;;;;;5040617;28;20518;-78
2022/07/27 12:50:16;;;;;;;3.25;0.70;;;;;;;;;;5039702;28;20055;-78
2022/07/27 12:52:52;;;;;;;4.15;0.70;;;;;;;;;;5040629;28;20068;-78
2022/07/27 12:55:19;;;;;;;2.75;0.70;;;;;;;;;;5023081;28;20601;-78
2022/07/27 12:57:46;;;;;;;4.75;0.70;;;;;;;;;;5041295;28;20030;-78
2022/07/27 13:00:14;;;;;;;2.60;0.70;;;;;;;;;;5040152;28;20021;-80
2022/07/27 13:02:40;;;;;;;5.07;0.80;;;;;;;;;;5040797;28;20025;-78
2022/07/27 13:05:09;;;;;;;1.40;0.80;;;;;;;;;;5040779;28;20111;-78
2022/07/27 13:07:35;;;;;;;3.47;0.90;;;;;;;;;;5040413;28;20454;-77
2022/07/27 13:10:01;;;;;;;2.97;0.90;;;;;;;;;;5040599;28;20038;-78
2022/07/27 13:12:27;;;;;;;2.20;0.60;;;;;;;;;;5040541;28;20446;-77
2022/07/27 13:14:52;;;;;;;2.50;0.88;;;;;;;;;;5041225;28;20029;-78
2022/07/27 13:17:17;;;;;;;1.75;0.73;;;;;;;;;;5041016;28;20029;-78
2022/07/27 13:19:42;;;;;;;3.55;0.73;;;;;;;;;;5041035;28;20021;-77
2022/07/27 13:22:08;;;;;;;4.23;0.97;;;;;;;;;;5041215;28;20026;-79
2022/07/27 13:24:33;;;;;;;1.40;0.67;;;;;;;;;;5041166;28;20290;-80
2022/07/27 13:26:59;;;;;;;1.20;0.80;;;;;;;;;;5023295;28;20270;-79
2022/07/27 13:29:25;;;;;;;3.75;0.77;;;;;;;;;;5041945;28;20057;-78
2022/07/27 13:31:50;;;;;;;2.58;0.68;;;;;;;;;;5042402;28;20037;-77
2022/07/27 13:34:15;;;;;;;3.20;0.90;;;;;;;;;;5041120;28;20025;-79
2022/07/27 13:36:41;;;;;;;6.10;0.87;;;;;;;;;;5041246;28;20033;-78
2022/07/27 13:39:08;;;;;;;4.20;0.70;;;;;;;;;;5041243;28;20258;-79
2022/07/27 13:41:34;;;;;;;3.47;0.90;;;;;;;;;;5023740;28;20021;-78
2022/07/27 13:43:59;;;;;;;4.03;0.90;;;;;;;;;;5040357;28;20538;-78
2022/07/27 13:46:24;;;;;;;4.22;1.00;;;;;;;;;;5023558;28;20067;-79
2022/07/27 13:48:50;;;;;;;3.37;0.80;;;;;;;;;;5040430;28;20053;-78
2022/07/27 13:51:15;;;;;;;3.77;0.80;;;;;;;;;;5040134;28;20289;-80
2022/07/27 13:53:40;;;;;;;3.20;0.90;;;;;;;;;;5040820;28;20286;-79
2022/07/27 13:56:06;;;;;;;0.77;0.60;;;;;;;;;;5040577;28;20819;-78
2022/07/27 13:58:31;;;;;;;2.42;0.75;;;;;;;;;;5021789;28;20679;-78
2022/07/27 14:00:56;;;;;;;3.05;0.70;;;;;;;;;;5039620;28;20442;-77
2022/07/27 14:03:22;;;;;;;1.40;0.80;;;;;;;;;;5036587;28;20455;-78
2022/07/27 14:05:47;;;;;;;3.33;0.60;;;;;;;;;;5036416;28;20770;-76
2022/07/27 14:08:13;;;;;;;4.77;1.00;;;;;;;;;;5018980;28;20641;-78
2022/07/27 14:10:38;;;;;;;2.53;0.85;;;;;;;;;;5036108;28;20259;-78
2022/07/27 14:13:06;;;;;;;2.13;0.80;;;;;;;;;;5035966;28;20055;-78
2022/07/27 14:15:31;;;;;;;2.10;0.93;;;;;;;;;;5019776;28;20029;-78
2022/07/27 14:17:57;;;;;;;8.95;1.23;;;;;;;;;;5038582;28;20028;-79
2022/07/27 14:20:22;;;;;;;2.78;0.80;;;;;;;;;;5040549;28;20116;-78
2022/07/27 14:22:48;;;;;;;2.90;0.80;;;;;;;;;;5040868;28;20390;-77
2022/07/27 14:25:16;;;;;;;2.95;0.70;;;;;;;;;;5040320;28;20492;-77
2022/07/27 14:27:41;;;;;;;1.50;0.60;;;;;;;;;;5040013;28;20545;-81
2022/07/27 14:30:07;;;;;;;2.23;0.80;;;;;;;;;;5039133;28;20021;-79
2022/07/27 14:32:34;;;;;;;1.17;0.60;;;;;;;;;;5040261;28;20763;-77
2022/07/27 14:34:59;;;;;;;1.70;0.70;;;;;;;;;;5039326;28;20048;-79
2022/07/27 14:37:25;;;;;;;3.25;0.90;;;;;;;;;;5040187;28;20081;-77
2022/07/27 14:39:50;;;;;;;2.53;0.90;;;;;;;;;;5039926;28;20025;-78
2022/07/27 14:42:18;;;;;;;4.07;1.00;;;;;;;;;;5023814;28;20063;-78
2022/07/27 14:44:43;;;;;;;2.10;0.68;;;;;;;;;;5040190;28;20265;-78